createdAt,value
2019-03-18T00:00:34.783Z,5.96
2019-03-18T00:03:58.118Z,6.15
2019-03-18T00:07:21.697Z,5.59
2019-03-18T00:10:44.923Z,5.94
2019-03-18T00:14:08.334Z,5.65
2019-03-18T00:17:31.462Z,5.75
2019-03-18T00:20:55.594Z,5.42
2019-03-18T00:24:18.824Z,5.72
2019-03-18T00:27:42.212Z,5.60
2019-03-18T00:31:05.284Z,5.64
2019-03-18T00:34:28.513Z,5.83
2019-03-18T00:37:51.755Z,5.81
2019-03-18T00:41:14.903Z,5.46
2019-03-18T00:44:38.039Z,5.52
2019-03-18T00:48:01.196Z,5.53
2019-03-18T00:51:24.389Z,5.71
2019-03-18T00:54:47.476Z,5.32
2019-03-18T00:58:10.912Z,5.78
2019-03-18T01:01:34.141Z,5.49
2019-03-18T01:04:57.551Z,5.40
2019-03-18T01:08:20.646Z,5.57
2019-03-18T01:11:43.823Z,5.57
2019-03-18T01:15:07.049Z,5.31
2019-03-18T01:18:30.228Z,5.69
2019-03-18T01:21:53.442Z,5.66
2019-03-18T01:25:16.814Z,5.47
2019-03-18T01:28:40.009Z,5.36
2019-03-18T01:32:03.150Z,5.40
2019-03-18T01:35:26.305Z,5.67
2019-03-18T01:38:49.540Z,5.60
2019-03-18T01:42:12.879Z,5.63
2019-03-18T01:45:41.064Z,5.43
2019-03-18T01:49:01.239Z,5.62
2019-03-18T01:52:24.393Z,5.73
2019-03-18T01:55:47.516Z,5.44
2019-03-18T01:59:10.715Z,5.70
2019-03-18T02:02:34.160Z,5.49
2019-03-18T02:05:57.260Z,5.57
2019-03-18T02:09:20.419Z,5.75
2019-03-18T02:12:43.502Z,5.48
2019-03-18T02:16:06.622Z,5.59
2019-03-18T02:19:29.918Z,5.82
2019-03-18T02:22:53.153Z,5.44
2019-03-18T02:26:16.314Z,5.56
2019-03-18T02:29:39.699Z,5.74
2019-03-18T02:33:02.798Z,5.48
2019-03-18T02:36:26.371Z,5.72
2019-03-18T02:39:49.554Z,6.03
2019-03-18T02:43:12.851Z,5.83
2019-03-18T02:46:35.972Z,5.63
2019-03-18T02:49:59.124Z,6.19
2019-03-18T02:53:22.226Z,6.42
2019-03-18T02:56:45.337Z,6.35
2019-03-18T03:00:09.756Z,6.38
2019-03-18T03:03:35.354Z,6.02
2019-03-18T03:06:57.845Z,6.03
2019-03-18T03:10:21.886Z,6.19
2019-03-18T03:13:45.005Z,5.90
2019-03-18T03:17:08.122Z,5.82
2019-03-18T03:20:31.506Z,6.08
2019-03-18T03:23:54.912Z,5.59
2019-03-18T03:27:18.411Z,5.97
2019-03-18T03:30:41.489Z,6.10
2019-03-18T03:34:04.588Z,6.08
2019-03-18T03:37:27.708Z,6.06
2019-03-18T03:40:51.171Z,6.31
2019-03-18T03:44:14.232Z,5.89
2019-03-18T03:47:37.378Z,5.86
2019-03-18T03:51:00.570Z,5.84
2019-03-18T03:54:23.653Z,5.72
2019-03-18T03:57:46.848Z,6.10
2019-03-18T04:01:09.885Z,5.98
2019-03-18T04:04:32.975Z,6.27
2019-03-18T04:07:56.037Z,6.25
2019-03-18T04:11:19.225Z,5.95
2019-03-18T04:14:42.546Z,6.12
2019-03-18T04:18:05.734Z,6.29
2019-03-18T04:21:28.825Z,6.39
2019-03-18T04:24:53.090Z,6.39
2019-03-18T04:28:16.324Z,5.93
2019-03-18T04:31:39.464Z,5.70
2019-03-18T04:35:02.925Z,6.23
2019-03-18T04:38:26.027Z,5.97
2019-03-18T04:41:49.103Z,6.25
2019-03-18T04:45:12.515Z,5.93
2019-03-18T04:48:35.681Z,5.73
2019-03-18T04:51:59.092Z,5.70
2019-03-18T04:55:22.219Z,5.76
2019-03-18T04:58:45.320Z,5.62
2019-03-18T05:02:08.415Z,5.74
2019-03-18T05:05:31.462Z,5.75
2019-03-18T05:08:54.735Z,5.49
2019-03-18T05:12:20.921Z,5.75
2019-03-18T05:15:44.032Z,5.66
2019-03-18T05:19:08.232Z,5.70
2019-03-18T05:22:31.458Z,5.73
2019-03-18T05:25:54.824Z,5.82
2019-03-18T05:29:17.943Z,6.03
2019-03-18T05:32:41.125Z,5.87
2019-03-18T05:36:04.227Z,5.97
2019-03-18T05:39:27.587Z,6.11
2019-03-18T05:42:50.975Z,6.02
2019-03-18T05:46:14.214Z,5.68
2019-03-18T05:49:37.424Z,5.91
2019-03-18T05:53:00.498Z,6.02
2019-03-18T05:56:23.607Z,5.64
2019-03-18T05:59:46.815Z,5.46
2019-03-18T06:03:10.100Z,5.79
2019-03-18T06:06:33.700Z,5.66
2019-03-18T06:09:57.134Z,5.49
2019-03-18T06:13:20.247Z,5.70
2019-03-18T06:16:43.406Z,5.70
2019-03-18T06:20:06.733Z,6.06
2019-03-18T06:23:29.995Z,6.00
2019-03-18T06:26:53.438Z,6.00
2019-03-18T06:30:16.788Z,5.76
2019-03-18T06:33:40.034Z,5.95
2019-03-18T06:37:03.186Z,5.56
2019-03-18T06:40:26.455Z,5.94
2019-03-18T06:43:49.914Z,6.62
2019-03-18T06:47:13.054Z,6.39
2019-03-18T06:50:36.176Z,6.61
2019-03-18T06:53:59.247Z,6.24
2019-03-18T06:57:22.355Z,6.20
2019-03-18T07:00:45.510Z,5.99
2019-03-18T07:04:09.523Z,6.47
2019-03-18T07:07:32.744Z,6.24
2019-03-18T07:10:56.314Z,6.09
2019-03-18T07:14:20.294Z,5.91
2019-03-18T07:17:43.375Z,6.34
2019-03-18T07:21:06.531Z,6.20
2019-03-18T07:24:29.767Z,6.60
2019-03-18T07:27:52.861Z,6.39
2019-03-18T07:31:16.115Z,6.53
2019-03-18T07:34:39.221Z,6.54
2019-03-18T07:38:48.684Z,6.80
2019-03-18T07:42:13.665Z,6.53
2019-03-18T07:45:36.795Z,6.51
2019-03-18T07:48:59.898Z,6.98
2019-03-18T07:52:23.045Z,6.80
2019-03-18T07:55:46.541Z,7.05
2019-03-18T07:59:10.705Z,7.89
2019-03-18T08:02:33.830Z,8.05
2019-03-18T08:05:57.016Z,7.89
2019-03-18T08:09:20.259Z,7.69
2019-03-18T08:12:43.365Z,7.76
2019-03-18T08:16:06.474Z,8.16
2019-03-18T08:19:29.643Z,7.81
2019-03-18T08:22:52.805Z,7.36
2019-03-18T08:26:15.979Z,7.52
2019-03-18T08:29:39.458Z,7.48
2019-03-18T08:33:02.561Z,7.34
2019-03-18T08:36:25.955Z,7.24
2019-03-18T08:39:49.456Z,7.22
2019-03-18T08:43:12.831Z,7.22
2019-03-18T08:46:36.259Z,7.57
2019-03-18T08:49:59.354Z,8.01
2019-03-18T08:53:22.610Z,8.05
2019-03-18T08:56:47.358Z,7.97
2019-03-18T09:00:11.186Z,8.42
2019-03-18T09:03:34.303Z,8.45
2019-03-18T09:06:57.963Z,8.63
2019-03-18T09:10:21.069Z,8.69
2019-03-18T09:13:44.270Z,8.84
2019-03-18T09:17:07.443Z,9.53
2019-03-18T09:20:30.535Z,9.32
2019-03-18T09:23:53.763Z,9.47
2019-03-18T09:27:16.927Z,10.08
2019-03-18T09:30:40.108Z,9.65
2019-03-18T09:34:03.457Z,9.65
2019-03-18T09:37:26.560Z,9.87
2019-03-18T09:40:50.003Z,10.43
2019-03-18T09:44:13.095Z,11.00
2019-03-18T09:47:36.273Z,10.82
2019-03-18T09:50:59.401Z,10.68
2019-03-18T09:54:22.830Z,11.93
2019-03-18T09:57:46.121Z,11.63
2019-03-18T10:01:09.339Z,11.65
2019-03-18T10:04:33.766Z,11.35
2019-03-18T10:07:56.922Z,11.20
2019-03-18T10:11:20.163Z,10.79
2019-03-18T10:14:43.366Z,10.76
2019-03-18T10:18:06.866Z,9.91
2019-03-18T10:21:30.036Z,10.53
2019-03-18T10:24:53.158Z,10.93
2019-03-18T10:28:16.718Z,10.47
2019-03-18T10:31:40.078Z,10.84
2019-03-18T10:35:04.339Z,12.29
2019-03-18T10:38:27.457Z,12.33
2019-03-18T10:41:50.673Z,13.36
2019-03-18T10:45:14.141Z,15.37
2019-03-18T10:48:38.360Z,15.37
2019-03-18T10:52:01.479Z,14.81
2019-03-18T10:55:24.714Z,14.54
2019-03-18T10:58:47.895Z,13.13
2019-03-18T11:02:11.073Z,12.31
2019-03-18T11:05:34.180Z,12.42
2019-03-18T11:08:57.584Z,12.26
2019-03-18T11:12:20.771Z,12.91
2019-03-18T11:15:43.884Z,14.20
2019-03-18T11:19:07.284Z,14.60
2019-03-18T11:22:30.388Z,13.53
2019-03-18T11:25:53.815Z,12.31
2019-03-18T11:29:17.010Z,14.19
2019-03-18T11:32:40.149Z,15.32
2019-03-18T11:36:03.663Z,12.90
2019-03-18T11:39:26.775Z,12.71
2019-03-18T11:42:49.898Z,12.48
2019-03-18T11:46:13.056Z,13.27
2019-03-18T11:49:39.764Z,14.76
2019-03-18T11:53:13.459Z,15.20
2019-03-18T11:56:26.931Z,14.96
2019-03-18T11:59:50.069Z,14.58
2019-03-18T12:03:13.272Z,13.72
2019-03-18T12:06:36.827Z,13.28
2019-03-18T12:10:00.371Z,12.95
2019-03-18T12:13:23.537Z,12.37
2019-03-18T12:16:47.094Z,12.86
2019-03-18T12:20:23.211Z,12.64
2019-03-18T12:23:35.972Z,12.84
2019-03-18T12:26:59.189Z,13.24
2019-03-18T12:30:22.441Z,13.00
2019-03-18T12:33:45.591Z,12.83
2019-03-18T12:37:08.778Z,12.70
2019-03-18T12:40:32.067Z,12.27
2019-03-18T12:43:55.336Z,11.27
2019-03-18T12:47:18.632Z,11.58
2019-03-18T12:50:55.322Z,11.05
2019-03-18T12:54:07.013Z,11.03
2019-03-18T12:57:30.313Z,12.25
2019-03-18T13:00:53.573Z,12.69
2019-03-18T13:04:16.703Z,12.66
2019-03-18T13:07:39.938Z,13.44
2019-03-18T13:11:03.566Z,14.01
2019-03-18T13:14:26.999Z,14.68
2019-03-18T13:17:50.458Z,15.67
2019-03-18T13:21:13.600Z,15.73
2019-03-18T13:24:36.981Z,16.10
2019-03-18T13:28:00.244Z,16.11
2019-03-18T13:31:23.707Z,17.39
2019-03-18T13:34:46.871Z,19.52
2019-03-18T13:38:10.019Z,20.27
2019-03-18T13:41:33.144Z,20.77
2019-03-18T13:44:56.338Z,21.70
2019-03-18T13:48:19.672Z,22.22
2019-03-18T13:51:43.331Z,21.16
2019-03-18T13:55:07.104Z,21.46
2019-03-18T13:58:30.246Z,24.24
2019-03-18T14:01:54.622Z,25.11
2019-03-18T14:05:17.898Z,26.59
2019-03-18T14:08:41.180Z,23.83
2019-03-18T14:12:04.525Z,20.51
2019-03-18T14:15:27.883Z,18.02
2019-03-18T14:18:51.167Z,16.32
2019-03-18T14:22:14.434Z,15.49
2019-03-18T14:25:37.588Z,14.20
2019-03-18T14:29:00.820Z,14.11
2019-03-18T14:32:25.794Z,13.27
2019-03-18T14:35:48.966Z,13.12
2019-03-18T14:39:12.134Z,13.28
2019-03-18T14:42:35.414Z,14.73
2019-03-18T14:45:58.553Z,14.35
2019-03-18T14:49:21.783Z,14.01
2019-03-18T14:52:45.439Z,16.69
2019-03-18T14:56:08.723Z,19.67
2019-03-18T14:59:31.916Z,20.27
2019-03-18T15:02:55.070Z,20.98
2019-03-18T15:06:18.257Z,21.93
2019-03-18T15:09:41.407Z,22.43
2019-03-18T15:13:07.747Z,22.35
2019-03-18T15:16:31.016Z,22.03
2019-03-18T15:19:54.117Z,22.69
2019-03-18T15:23:17.644Z,22.66
2019-03-18T15:26:40.780Z,22.78
2019-03-18T15:30:06.485Z,23.41
2019-03-18T15:33:29.575Z,23.08
2019-03-18T15:36:55.156Z,21.59
2019-03-18T15:40:18.530Z,18.72
2019-03-18T15:43:42.058Z,16.93
2019-03-18T15:47:05.500Z,16.20
2019-03-18T15:50:28.682Z,15.00
2019-03-18T15:53:52.188Z,14.75
2019-03-18T15:57:15.354Z,14.52
2019-03-18T16:00:38.496Z,14.27
2019-03-18T16:04:01.772Z,14.11
2019-03-18T16:07:24.909Z,14.03
2019-03-18T16:10:48.076Z,14.01
2019-03-18T16:14:11.537Z,14.03
2019-03-18T16:17:34.747Z,13.96
2019-03-18T16:20:57.912Z,16.40
2019-03-18T16:24:21.156Z,18.62
2019-03-18T16:27:44.410Z,17.27
2019-03-18T16:31:07.685Z,16.88
2019-03-18T16:34:30.899Z,17.42
2019-03-18T16:37:54.135Z,16.11
2019-03-18T16:41:17.330Z,15.68
2019-03-18T16:44:40.455Z,16.16
2019-03-18T16:48:04.125Z,15.95
2019-03-18T16:51:27.480Z,16.39
2019-03-18T16:54:50.735Z,16.21
2019-03-18T16:58:14.725Z,14.65
2019-03-18T17:01:38.286Z,14.06
2019-03-18T17:05:01.731Z,13.24
2019-03-18T17:08:25.063Z,12.88
2019-03-18T17:11:48.247Z,12.84
2019-03-18T17:15:12.459Z,12.89
2019-03-18T17:18:35.991Z,12.74
2019-03-18T17:21:59.219Z,12.51
2019-03-18T17:25:22.579Z,12.53
2019-03-18T17:28:45.890Z,12.37
2019-03-18T17:32:09.022Z,12.17
2019-03-18T17:35:32.391Z,11.97
2019-03-18T17:38:59.407Z,12.11
2019-03-18T17:42:22.570Z,11.89
2019-03-18T17:45:45.670Z,11.77
2019-03-18T17:49:09.084Z,11.75
2019-03-18T17:52:32.423Z,11.30
2019-03-18T17:55:55.610Z,11.11
2019-03-18T17:59:18.826Z,10.84
2019-03-18T18:02:42.080Z,10.90
2019-03-18T18:06:05.252Z,10.76
2019-03-18T18:09:28.385Z,10.57
2019-03-18T18:12:51.764Z,10.71
2019-03-18T18:16:14.996Z,10.80
2019-03-18T18:19:51.817Z,10.53
2019-03-18T18:23:15.258Z,10.55
2019-03-18T18:26:38.494Z,10.54
2019-03-18T18:30:01.950Z,10.22
2019-03-18T18:33:25.296Z,9.98
2019-03-18T18:36:48.622Z,9.80
2019-03-18T18:40:12.197Z,9.82
2019-03-18T18:43:35.382Z,9.63
2019-03-18T18:46:58.546Z,9.70
2019-03-18T18:50:21.744Z,9.60
2019-03-18T18:53:45.060Z,9.59
2019-03-18T18:57:08.219Z,9.76
2019-03-18T19:00:31.473Z,9.46
2019-03-18T19:03:54.941Z,9.26
2019-03-18T19:07:18.093Z,9.30
2019-03-18T19:10:41.541Z,9.01
2019-03-18T19:14:04.694Z,9.01
2019-03-18T19:17:27.929Z,8.90
2019-03-18T19:20:51.327Z,8.75
2019-03-18T19:24:14.451Z,8.55
2019-03-18T19:27:37.595Z,8.34
2019-03-18T19:31:00.963Z,8.22
2019-03-18T19:34:24.202Z,8.15
2019-03-18T19:37:47.992Z,8.34
2019-03-18T19:41:11.112Z,8.38
2019-03-18T19:44:34.462Z,8.48
2019-03-18T19:47:57.627Z,8.23
2019-03-18T19:51:21.098Z,8.19
2019-03-18T19:54:44.335Z,8.18
2019-03-18T19:58:07.641Z,8.12
2019-03-18T20:01:31.020Z,7.98
2019-03-18T20:04:54.654Z,7.96
2019-03-18T20:08:18.001Z,7.92
2019-03-18T20:11:43.638Z,7.80
2019-03-18T20:15:11.955Z,7.78
2019-03-18T20:18:38.141Z,7.75
2019-03-18T20:22:02.227Z,7.64
2019-03-18T20:25:26.259Z,7.54
2019-03-18T20:28:49.403Z,7.64
2019-03-18T20:32:13.651Z,7.62
2019-03-18T20:35:36.919Z,7.54
2019-03-18T20:39:00.863Z,7.57
2019-03-18T20:42:24.164Z,7.44
2019-03-18T20:45:47.411Z,7.31
2019-03-18T20:49:11.053Z,7.08
2019-03-18T20:52:34.685Z,7.00
2019-03-18T20:55:58.470Z,7.03
2019-03-18T20:59:22.026Z,7.15
2019-03-18T21:02:45.680Z,6.93
2019-03-18T21:06:09.093Z,6.86
2019-03-18T21:09:33.503Z,6.77
2019-03-18T21:12:57.852Z,6.71
2019-03-18T21:16:21.274Z,6.59
2019-03-18T21:19:44.765Z,6.39
2019-03-18T21:23:07.945Z,6.38
2019-03-18T21:26:31.110Z,6.25
2019-03-18T21:29:54.256Z,6.27
2019-03-18T21:33:17.643Z,6.23
2019-03-18T21:36:41.791Z,6.27
2019-03-18T21:40:06.086Z,6.19
2019-03-18T21:43:29.423Z,6.13
2019-03-18T21:46:52.934Z,6.12
2019-03-18T21:50:16.242Z,5.97
2019-03-18T21:53:39.400Z,5.89
2019-03-18T21:57:02.910Z,5.80
2019-03-18T22:00:26.330Z,5.76
2019-03-18T22:03:49.591Z,5.79
2019-03-18T22:07:12.738Z,5.80
2019-03-18T22:10:36.148Z,5.75
2019-03-18T22:13:59.363Z,5.63
2019-03-18T22:17:22.641Z,5.65
2019-03-18T22:20:45.783Z,5.63
2019-03-18T22:24:09.085Z,5.54
2019-03-18T22:27:32.300Z,5.48
2019-03-18T22:30:55.436Z,5.50
2019-03-18T22:34:18.544Z,5.48
2019-03-18T22:37:42.124Z,5.25
2019-03-18T22:41:05.523Z,5.57
2019-03-18T22:44:28.682Z,5.49
2019-03-18T22:47:52.227Z,5.43
2019-03-18T22:51:15.981Z,5.30
2019-03-18T22:54:39.100Z,5.25
2019-03-18T22:58:02.347Z,5.21
2019-03-18T23:01:26.504Z,5.04
2019-03-18T23:04:49.742Z,5.07
2019-03-18T23:08:12.992Z,4.98
2019-03-18T23:11:36.358Z,4.94
2019-03-18T23:14:59.678Z,4.93
2019-03-18T23:18:22.839Z,4.92
2019-03-18T23:21:46.086Z,4.93
2019-03-18T23:25:09.139Z,4.93
2019-03-18T23:28:32.421Z,4.79
2019-03-18T23:31:55.642Z,4.82
2019-03-18T23:35:18.916Z,4.82
2019-03-18T23:38:42.190Z,4.77
2019-03-18T23:42:05.924Z,4.71
2019-03-18T23:45:29.351Z,4.70
2019-03-18T23:48:52.434Z,4.74
2019-03-18T23:52:15.609Z,4.71
2019-03-18T23:55:38.877Z,4.73
2019-03-18T23:59:02.167Z,4.70
